sensor_id;sensor_type;location;lat;lon;timestamp;P1;durP1;ratioP1;P2;durP2;ratioP2
3811;SDS011;1921;49.368;11.068;2022-08-25T00:01:59;68.03;;;55.20;;
3811;SDS011;1921;49.368;11.068;2022-08-25T00:04:27;71.10;;;55.40;;
3811;SDS011;1921;49.368;11.068;2022-08-25T00:06:53;68.30;;;56.13;;
3811;SDS011;1921;49.368;11.068;2022-08-25T00:09:21;73.00;;;56.20;;
3811;SDS011;1921;49.368;11.068;2022-08-25T00:11:49;71.17;;;55.80;;
3811;SDS011;1921;49.368;11.068;2022-08-25T00:14:19;67.00;;;55.80;;
3811;SDS011;1921;49.368;11.068;2022-08-25T00:16:55;65.50;;;55.00;;
3811;SDS011;1921;49.368;11.068;2022-08-25T00:19:23;70.97;;;55.40;;
3811;SDS011;1921;49.368;11.068;2022-08-25T00:21:53;76.10;;;56.53;;
3811;SDS011;1921;49.368;11.068;2022-08-25T00:24:19;70.40;;;56.43;;
3811;SDS011;1921;49.368;11.068;2022-08-25T00:26:47;76.97;;;56.50;;
3811;SDS011;1921;49.368;11.068;2022-08-25T00:29:19;69.63;;;56.30;;
3811;SDS011;1921;49.368;11.068;2022-08-25T00:31:46;70.40;;;55.93;;
3811;SDS011;1921;49.368;11.068;2022-08-25T00:34:14;67.67;;;55.70;;
3811;SDS011;1921;49.368;11.068;2022-08-25T00:36:43;72.57;;;55.57;;
3811;SDS011;1921;49.368;11.068;2022-08-25T00:39:11;65.37;;;55.30;;
3811;SDS011;1921;49.368;11.068;2022-08-25T00:41:37;68.80;;;55.10;;
3811;SDS011;1921;49.368;11.068;2022-08-25T00:44:07;67.90;;;56.13;;
3811;SDS011;1921;49.368;11.068;2022-08-25T00:46:38;67.97;;;55.47;;
3811;SDS011;1921;49.368;11.068;2022-08-25T00:49:15;66.70;;;55.60;;
3811;SDS011;1921;49.368;11.068;2022-08-25T00:54:45;66.30;;;55.27;;
3811;SDS011;1921;49.368;11.068;2022-08-25T00:57:26;72.53;;;56.13;;
3811;SDS011;1921;49.368;11.068;2022-08-25T00:59:57;68.40;;;56.00;;
3811;SDS011;1921;49.368;11.068;2022-08-25T01:02:24;71.10;;;55.97;;
3811;SDS011;1921;49.368;11.068;2022-08-25T01:04:50;73.93;;;57.40;;
3811;SDS011;1921;49.368;11.068;2022-08-25T01:07:17;67.23;;;55.30;;
3811;SDS011;1921;49.368;11.068;2022-08-25T01:09:46;74.97;;;56.47;;
3811;SDS011;1921;49.368;11.068;2022-08-25T01:12:16;73.13;;;56.03;;
3811;SDS011;1921;49.368;11.068;2022-08-25T01:14:42;75.20;;;55.60;;
3811;SDS011;1921;49.368;11.068;2022-08-25T01:17:10;70.93;;;57.63;;
3811;SDS011;1921;49.368;11.068;2022-08-25T01:19:37;72.80;;;56.50;;
3811;SDS011;1921;49.368;11.068;2022-08-25T01:22:03;70.27;;;55.60;;
3811;SDS011;1921;49.368;11.068;2022-08-25T01:27:18;68.63;;;55.67;;
3811;SDS011;1921;49.368;11.068;2022-08-25T01:29:44;71.63;;;56.10;;
3811;SDS011;1921;49.368;11.068;2022-08-25T01:32:11;68.63;;;55.60;;
3811;SDS011;1921;49.368;11.068;2022-08-25T01:34:39;69.10;;;55.80;;
3811;SDS011;1921;49.368;11.068;2022-08-25T01:37:08;66.93;;;54.53;;
3811;SDS011;1921;49.368;11.068;2022-08-25T01:39:35;69.40;;;56.00;;
3811;SDS011;1921;49.368;11.068;2022-08-25T01:44:30;67.87;;;55.90;;
3811;SDS011;1921;49.368;11.068;2022-08-25T01:46:59;70.67;;;54.60;;
3811;SDS011;1921;49.368;11.068;2022-08-25T01:49:26;69.70;;;56.10;;
3811;SDS011;1921;49.368;11.068;2022-08-25T01:51:56;70.00;;;55.93;;
3811;SDS011;1921;49.368;11.068;2022-08-25T01:54:30;67.90;;;55.40;;
3811;SDS011;1921;49.368;11.068;2022-08-25T01:56:57;68.97;;;55.90;;
3811;SDS011;1921;49.368;11.068;2022-08-25T01:59:23;67.00;;;54.73;;
3811;SDS011;1921;49.368;11.068;2022-08-25T02:01:50;70.83;;;56.97;;
3811;SDS011;1921;49.368;11.068;2022-08-25T02:04:16;69.73;;;56.00;;
3811;SDS011;1921;49.368;11.068;2022-08-25T02:06:42;68.30;;;56.33;;
3811;SDS011;1921;49.368;11.068;2022-08-25T02:09:14;69.07;;;54.97;;
3811;SDS011;1921;49.368;11.068;2022-08-25T02:11:41;65.70;;;54.53;;
3811;SDS011;1921;49.368;11.068;2022-08-25T02:14:10;66.17;;;54.70;;
3811;SDS011;1921;49.368;11.068;2022-08-25T02:16:39;71.20;;;56.47;;
3811;SDS011;1921;49.368;11.068;2022-08-25T02:19:07;71.83;;;56.87;;
3811;SDS011;1921;49.368;11.068;2022-08-25T02:21:36;69.00;;;56.13;;
3811;SDS011;1921;49.368;11.068;2022-08-25T02:24:03;72.13;;;56.17;;
3811;SDS011;1921;49.368;11.068;2022-08-25T02:26:30;70.63;;;55.83;;
3811;SDS011;1921;49.368;11.068;2022-08-25T02:28:56;70.47;;;56.00;;
3811;SDS011;1921;49.368;11.068;2022-08-25T02:31:22;68.70;;;55.90;;
3811;SDS011;1921;49.368;11.068;2022-08-25T02:33:50;69.27;;;55.87;;
3811;SDS011;1921;49.368;11.068;2022-08-25T02:36:16;69.87;;;55.97;;
3811;SDS011;1921;49.368;11.068;2022-08-25T02:38:43;68.57;;;55.30;;
3811;SDS011;1921;49.368;11.068;2022-08-25T02:41:16;68.23;;;56.00;;
3811;SDS011;1921;49.368;11.068;2022-08-25T02:43:48;68.67;;;55.20;;
3811;SDS011;1921;49.368;11.068;2022-08-25T02:46:15;67.97;;;55.53;;
3811;SDS011;1921;49.368;11.068;2022-08-25T02:48:44;68.97;;;56.37;;
3811;SDS011;1921;49.368;11.068;2022-08-25T02:51:11;70.10;;;55.90;;
3811;SDS011;1921;49.368;11.068;2022-08-25T02:53:38;67.57;;;55.57;;
3811;SDS011;1921;49.368;11.068;2022-08-25T02:56:06;70.20;;;56.53;;
3811;SDS011;1921;49.368;11.068;2022-08-25T02:58:35;68.57;;;55.47;;
3811;SDS011;1921;49.368;11.068;2022-08-25T03:01:02;66.43;;;55.87;;
3811;SDS011;1921;49.368;11.068;2022-08-25T03:03:29;69.60;;;56.33;;
3811;SDS011;1921;49.368;11.068;2022-08-25T03:05:55;72.87;;;56.90;;
3811;SDS011;1921;49.368;11.068;2022-08-25T03:08:21;71.50;;;56.97;;
3811;SDS011;1921;49.368;11.068;2022-08-25T03:10:48;69.83;;;56.37;;
3811;SDS011;1921;49.368;11.068;2022-08-25T03:13:13;76.20;;;58.27;;
3811;SDS011;1921;49.368;11.068;2022-08-25T03:15:40;73.37;;;57.40;;
3811;SDS011;1921;49.368;11.068;2022-08-25T03:18:06;73.20;;;57.50;;
3811;SDS011;1921;49.368;11.068;2022-08-25T03:20:32;70.50;;;57.23;;
3811;SDS011;1921;49.368;11.068;2022-08-25T03:22:59;69.60;;;56.87;;
3811;SDS011;1921;49.368;11.068;2022-08-25T03:25:27;71.80;;;57.40;;
3811;SDS011;1921;49.368;11.068;2022-08-25T03:28:12;72.67;;;56.97;;
3811;SDS011;1921;49.368;11.068;2022-08-25T03:30:38;72.67;;;56.67;;
3811;SDS011;1921;49.368;11.068;2022-08-25T03:33:05;75.70;;;57.33;;
3811;SDS011;1921;49.368;11.068;2022-08-25T03:35:31;68.77;;;55.73;;
3811;SDS011;1921;49.368;11.068;2022-08-25T03:37:57;67.53;;;55.83;;
3811;SDS011;1921;49.368;11.068;2022-08-25T03:40:24;70.77;;;55.80;;
3811;SDS011;1921;49.368;11.068;2022-08-25T03:42:50;70.33;;;55.30;;
3811;SDS011;1921;49.368;11.068;2022-08-25T03:45:16;67.77;;;55.03;;
3811;SDS011;1921;49.368;11.068;2022-08-25T03:47:44;67.10;;;55.83;;
3811;SDS011;1921;49.368;11.068;2022-08-25T03:50:13;72.10;;;56.43;;
3811;SDS011;1921;49.368;11.068;2022-08-25T03:52:40;70.10;;;56.33;;
3811;SDS011;1921;49.368;11.068;2022-08-25T03:55:07;75.67;;;57.80;;
3811;SDS011;1921;49.368;11.068;2022-08-25T03:57:36;69.60;;;55.77;;
3811;SDS011;1921;49.368;11.068;2022-08-25T04:00:03;69.50;;;56.97;;
3811;SDS011;1921;49.368;11.068;2022-08-25T04:02:32;73.10;;;57.23;;
3811;SDS011;1921;49.368;11.068;2022-08-25T04:04:57;68.70;;;55.13;;
3811;SDS011;1921;49.368;11.068;2022-08-25T04:07:23;70.30;;;56.30;;
3811;SDS011;1921;49.368;11.068;2022-08-25T04:09:50;71.40;;;56.30;;
3811;SDS011;1921;49.368;11.068;2022-08-25T04:12:19;70.27;;;56.47;;
3811;SDS011;1921;49.368;11.068;2022-08-25T04:14:45;72.23;;;56.40;;
3811;SDS011;1921;49.368;11.068;2022-08-25T04:17:12;73.93;;;56.57;;
3811;SDS011;1921;49.368;11.068;2022-08-25T04:19:38;72.33;;;57.00;;
3811;SDS011;1921;49.368;11.068;2022-08-25T04:22:04;70.27;;;56.80;;
3811;SDS011;1921;49.368;11.068;2022-08-25T04:24:30;72.00;;;57.47;;
3811;SDS011;1921;49.368;11.068;2022-08-25T04:26:56;72.67;;;57.03;;
3811;SDS011;1921;49.368;11.068;2022-08-25T04:29:22;72.90;;;57.60;;
3811;SDS011;1921;49.368;11.068;2022-08-25T04:31:50;69.27;;;57.00;;
3811;SDS011;1921;49.368;11.068;2022-08-25T04:34:17;72.20;;;57.63;;
3811;SDS011;1921;49.368;11.068;2022-08-25T04:36:47;69.53;;;56.83;;
3811;SDS011;1921;49.368;11.068;2022-08-25T04:39:14;69.23;;;56.00;;
3811;SDS011;1921;49.368;11.068;2022-08-25T04:41:44;72.00;;;56.60;;
3811;SDS011;1921;49.368;11.068;2022-08-25T04:44:10;72.73;;;57.30;;
3811;SDS011;1921;49.368;11.068;2022-08-25T04:46:36;71.00;;;57.47;;
3811;SDS011;1921;49.368;11.068;2022-08-25T04:49:02;71.83;;;56.87;;
3811;SDS011;1921;49.368;11.068;2022-08-25T04:51:38;70.90;;;56.90;;
3811;SDS011;1921;49.368;11.068;2022-08-25T04:54:08;68.50;;;55.60;;
3811;SDS011;1921;49.368;11.068;2022-08-25T04:56:39;67.93;;;56.03;;
3811;SDS011;1921;49.368;11.068;2022-08-25T04:59:07;71.00;;;56.87;;
3811;SDS011;1921;49.368;11.068;2022-08-25T05:01:36;68.10;;;55.53;;
3811;SDS011;1921;49.368;11.068;2022-08-25T05:04:03;70.43;;;56.10;;
3811;SDS011;1921;49.368;11.068;2022-08-25T05:06:32;68.37;;;55.43;;
3811;SDS011;1921;49.368;11.068;2022-08-25T05:08:59;74.73;;;55.80;;
3811;SDS011;1921;49.368;11.068;2022-08-25T05:11:25;70.20;;;55.90;;
3811;SDS011;1921;49.368;11.068;2022-08-25T05:13:52;70.67;;;56.73;;
3811;SDS011;1921;49.368;11.068;2022-08-25T05:16:20;70.30;;;55.83;;
3811;SDS011;1921;49.368;11.068;2022-08-25T05:18:48;68.50;;;55.90;;
3811;SDS011;1921;49.368;11.068;2022-08-25T05:21:16;70.57;;;56.40;;
3811;SDS011;1921;49.368;11.068;2022-08-25T05:23:45;69.33;;;56.40;;
3811;SDS011;1921;49.368;11.068;2022-08-25T05:26:14;68.60;;;55.30;;
3811;SDS011;1921;49.368;11.068;2022-08-25T05:28:46;68.57;;;55.93;;
3811;SDS011;1921;49.368;11.068;2022-08-25T05:31:14;71.80;;;57.03;;
3811;SDS011;1921;49.368;11.068;2022-08-25T05:33:41;74.37;;;57.50;;
3811;SDS011;1921;49.368;11.068;2022-08-25T05:36:08;73.90;;;56.70;;
3811;SDS011;1921;49.368;11.068;2022-08-25T05:38:36;72.13;;;56.60;;
3811;SDS011;1921;49.368;11.068;2022-08-25T05:41:06;72.77;;;57.13;;
3811;SDS011;1921;49.368;11.068;2022-08-25T05:43:37;75.37;;;57.80;;
3811;SDS011;1921;49.368;11.068;2022-08-25T05:46:05;73.10;;;56.30;;
3811;SDS011;1921;49.368;11.068;2022-08-25T05:48:32;71.57;;;55.80;;
3811;SDS011;1921;49.368;11.068;2022-08-25T05:50:59;67.73;;;55.00;;
3811;SDS011;1921;49.368;11.068;2022-08-25T05:53:27;70.67;;;55.90;;
3811;SDS011;1921;49.368;11.068;2022-08-25T05:55:55;72.00;;;56.10;;
3811;SDS011;1921;49.368;11.068;2022-08-25T05:58:23;68.60;;;55.30;;
3811;SDS011;1921;49.368;11.068;2022-08-25T06:00:50;71.43;;;56.87;;
3811;SDS011;1921;49.368;11.068;2022-08-25T06:03:16;72.23;;;57.30;;
3811;SDS011;1921;49.368;11.068;2022-08-25T06:05:42;70.70;;;56.70;;
3811;SDS011;1921;49.368;11.068;2022-08-25T06:08:08;71.27;;;57.47;;
3811;SDS011;1921;49.368;11.068;2022-08-25T06:10:34;78.97;;;57.30;;
3811;SDS011;1921;49.368;11.068;2022-08-25T06:13:00;76.03;;;57.97;;
3811;SDS011;1921;49.368;11.068;2022-08-25T06:15:27;77.30;;;58.00;;
3811;SDS011;1921;49.368;11.068;2022-08-25T06:17:53;78.67;;;59.27;;
3811;SDS011;1921;49.368;11.068;2022-08-25T06:20:22;85.57;;;61.07;;
3811;SDS011;1921;49.368;11.068;2022-08-25T06:22:52;83.43;;;58.50;;
3811;SDS011;1921;49.368;11.068;2022-08-25T06:25:19;74.20;;;58.07;;
3811;SDS011;1921;49.368;11.068;2022-08-25T06:27:48;74.33;;;57.67;;
3811;SDS011;1921;49.368;11.068;2022-08-25T06:30:14;75.00;;;57.90;;
3811;SDS011;1921;49.368;11.068;2022-08-25T06:32:44;73.93;;;57.80;;
3811;SDS011;1921;49.368;11.068;2022-08-25T06:35:15;76.00;;;58.10;;
3811;SDS011;1921;49.368;11.068;2022-08-25T06:37:43;73.83;;;58.13;;
3811;SDS011;1921;49.368;11.068;2022-08-25T06:40:11;78.67;;;58.27;;
3811;SDS011;1921;49.368;11.068;2022-08-25T06:42:38;76.23;;;58.50;;
3811;SDS011;1921;49.368;11.068;2022-08-25T06:45:04;73.87;;;57.73;;
3811;SDS011;1921;49.368;11.068;2022-08-25T06:47:31;74.37;;;57.60;;
3811;SDS011;1921;49.368;11.068;2022-08-25T06:49:57;75.10;;;58.60;;
3811;SDS011;1921;49.368;11.068;2022-08-25T06:52:22;74.87;;;59.40;;
3811;SDS011;1921;49.368;11.068;2022-08-25T06:54:48;79.33;;;59.57;;
3811;SDS011;1921;49.368;11.068;2022-08-25T06:57:14;80.40;;;60.10;;
3811;SDS011;1921;49.368;11.068;2022-08-25T06:59:41;88.47;;;60.30;;
3811;SDS011;1921;49.368;11.068;2022-08-25T07:02:07;83.17;;;60.17;;
3811;SDS011;1921;49.368;11.068;2022-08-25T07:04:33;83.07;;;60.97;;
3811;SDS011;1921;49.368;11.068;2022-08-25T07:06:59;82.83;;;60.93;;
3811;SDS011;1921;49.368;11.068;2022-08-25T07:09:26;83.73;;;60.80;;
3811;SDS011;1921;49.368;11.068;2022-08-25T07:11:52;80.87;;;60.97;;
3811;SDS011;1921;49.368;11.068;2022-08-25T07:14:18;81.57;;;59.90;;
3811;SDS011;1921;49.368;11.068;2022-08-25T07:16:46;87.70;;;62.00;;
3811;SDS011;1921;49.368;11.068;2022-08-25T07:19:12;84.97;;;61.27;;
3811;SDS011;1921;49.368;11.068;2022-08-25T07:21:38;84.37;;;60.60;;
3811;SDS011;1921;49.368;11.068;2022-08-25T07:24:09;87.60;;;62.10;;
3811;SDS011;1921;49.368;11.068;2022-08-25T07:26:37;85.63;;;61.67;;
3811;SDS011;1921;49.368;11.068;2022-08-25T07:29:14;80.23;;;60.53;;
3811;SDS011;1921;49.368;11.068;2022-08-25T07:31:44;82.77;;;61.23;;
3811;SDS011;1921;49.368;11.068;2022-08-25T07:34:11;81.20;;;61.00;;
3811;SDS011;1921;49.368;11.068;2022-08-25T07:36:55;81.10;;;60.17;;
3811;SDS011;1921;49.368;11.068;2022-08-25T07:39:22;79.97;;;60.60;;
3811;SDS011;1921;49.368;11.068;2022-08-25T07:41:49;83.20;;;61.90;;
3811;SDS011;1921;49.368;11.068;2022-08-25T07:44:16;80.47;;;60.60;;
3811;SDS011;1921;49.368;11.068;2022-08-25T07:46:42;84.90;;;61.20;;
3811;SDS011;1921;49.368;11.068;2022-08-25T07:49:08;76.10;;;59.40;;
3811;SDS011;1921;49.368;11.068;2022-08-25T07:51:34;76.97;;;59.50;;
3811;SDS011;1921;49.368;11.068;2022-08-25T07:54:00;78.87;;;60.27;;
3811;SDS011;1921;49.368;11.068;2022-08-25T07:56:26;80.53;;;61.50;;
3811;SDS011;1921;49.368;11.068;2022-08-25T07:58:52;80.27;;;60.90;;
3811;SDS011;1921;49.368;11.068;2022-08-25T08:01:19;79.50;;;60.67;;
3811;SDS011;1921;49.368;11.068;2022-08-25T08:03:48;81.17;;;60.60;;
3811;SDS011;1921;49.368;11.068;2022-08-25T08:06:15;79.23;;;60.20;;
3811;SDS011;1921;49.368;11.068;2022-08-25T08:08:44;77.60;;;59.37;;
3811;SDS011;1921;49.368;11.068;2022-08-25T08:11:23;81.73;;;59.93;;
3811;SDS011;1921;49.368;11.068;2022-08-25T08:13:52;79.30;;;60.70;;
3811;SDS011;1921;49.368;11.068;2022-08-25T08:16:20;82.03;;;60.40;;
3811;SDS011;1921;49.368;11.068;2022-08-25T08:18:49;85.87;;;62.20;;
3811;SDS011;1921;49.368;11.068;2022-08-25T08:21:17;85.33;;;61.57;;
3811;SDS011;1921;49.368;11.068;2022-08-25T08:23:47;82.00;;;62.37;;
3811;SDS011;1921;49.368;11.068;2022-08-25T08:26:16;84.87;;;60.97;;
3811;SDS011;1921;49.368;11.068;2022-08-25T08:28:42;85.50;;;61.43;;
3811;SDS011;1921;49.368;11.068;2022-08-25T08:31:09;86.60;;;62.10;;
3811;SDS011;1921;49.368;11.068;2022-08-25T08:33:35;83.87;;;61.20;;
3811;SDS011;1921;49.368;11.068;2022-08-25T08:36:03;87.63;;;62.20;;
3811;SDS011;1921;49.368;11.068;2022-08-25T08:38:33;85.40;;;61.13;;
3811;SDS011;1921;49.368;11.068;2022-08-25T08:44:14;84.65;;;61.05;;
3811;SDS011;1921;49.368;11.068;2022-08-25T08:52:08;85.57;;;61.78;;
3811;SDS011;1921;49.368;11.068;2022-08-25T08:54:37;82.70;;;62.60;;
3811;SDS011;1921;49.368;11.068;2022-08-25T08:57:10;82.55;;;61.63;;
3811;SDS011;1921;49.368;11.068;2022-08-25T08:59:48;85.57;;;61.63;;
3811;SDS011;1921;49.368;11.068;2022-08-25T09:02:55;81.72;;;62.13;;
3811;SDS011;1921;49.368;11.068;2022-08-25T09:05:28;82.18;;;61.58;;
3811;SDS011;1921;49.368;11.068;2022-08-25T09:08:06;82.15;;;60.75;;
3811;SDS011;1921;49.368;11.068;2022-08-25T09:10:39;81.00;;;62.00;;
3811;SDS011;1921;49.368;11.068;2022-08-25T09:13:13;83.50;;;61.53;;
3811;SDS011;1921;49.368;11.068;2022-08-25T09:25:21;80.05;;;61.70;;
3811;SDS011;1921;49.368;11.068;2022-08-25T09:30:47;85.68;;;61.90;;
3811;SDS011;1921;49.368;11.068;2022-08-25T09:33:21;79.82;;;61.10;;
3811;SDS011;1921;49.368;11.068;2022-08-25T09:35:50;80.97;;;62.13;;
3811;SDS011;1921;49.368;11.068;2022-08-25T09:38:18;84.45;;;61.63;;
3811;SDS011;1921;49.368;11.068;2022-08-25T09:40:45;79.65;;;61.25;;
3811;SDS011;1921;49.368;11.068;2022-08-25T09:43:19;78.47;;;61.00;;
3811;SDS011;1921;49.368;11.068;2022-08-25T09:51:25;79.13;;;61.58;;
3811;SDS011;1921;49.368;11.068;2022-08-25T09:56:49;82.63;;;62.17;;
3811;SDS011;1921;49.368;11.068;2022-08-25T09:59:27;75.87;;;60.10;;
3811;SDS011;1921;49.368;11.068;2022-08-25T10:01:58;79.97;;;60.83;;
3811;SDS011;1921;49.368;11.068;2022-08-25T10:04:28;77.63;;;59.77;;
3811;SDS011;1921;49.368;11.068;2022-08-25T10:07:04;78.83;;;60.37;;
3811;SDS011;1921;49.368;11.068;2022-08-25T10:09:53;77.33;;;60.30;;
3811;SDS011;1921;49.368;11.068;2022-08-25T10:12:28;77.50;;;60.40;;
3811;SDS011;1921;49.368;11.068;2022-08-25T10:15:24;77.68;;;60.33;;
3811;SDS011;1921;49.368;11.068;2022-08-25T10:17:54;77.90;;;60.78;;
3811;SDS011;1921;49.368;11.068;2022-08-25T10:20:22;78.05;;;60.05;;
3811;SDS011;1921;49.368;11.068;2022-08-25T10:22:54;78.85;;;61.58;;
3811;SDS011;1921;49.368;11.068;2022-08-25T10:25:36;77.72;;;60.40;;
3811;SDS011;1921;49.368;11.068;2022-08-25T10:31:03;80.07;;;60.35;;
3811;SDS011;1921;49.368;11.068;2022-08-25T10:48:12;80.10;;;57.70;;
3811;SDS011;1921;49.368;11.068;2022-08-25T10:57:21;76.23;;;59.10;;
3811;SDS011;1921;49.368;11.068;2022-08-25T11:05:20;78.80;;;59.13;;
3811;SDS011;1921;49.368;11.068;2022-08-25T11:10:40;74.57;;;58.47;;
3811;SDS011;1921;49.368;11.068;2022-08-25T11:13:40;76.40;;;59.15;;
3811;SDS011;1921;49.368;11.068;2022-08-25T11:16:18;75.57;;;59.30;;
3811;SDS011;1921;49.368;11.068;2022-08-25T11:19:07;74.80;;;58.10;;
3811;SDS011;1921;49.368;11.068;2022-08-25T11:21:52;79.70;;;58.10;;
3811;SDS011;1921;49.368;11.068;2022-08-25T11:27:57;75.60;;;56.43;;
3811;SDS011;1921;49.368;11.068;2022-08-25T11:30:28;78.00;;;59.20;;
3811;SDS011;1921;49.368;11.068;2022-08-25T11:32:54;75.90;;;58.43;;
3811;SDS011;1921;49.368;11.068;2022-08-25T11:35:40;72.83;;;56.77;;
3811;SDS011;1921;49.368;11.068;2022-08-25T11:41:36;74.40;;;58.70;;
3811;SDS011;1921;49.368;11.068;2022-08-25T11:47:21;75.87;;;58.67;;
3811;SDS011;1921;49.368;11.068;2022-08-25T11:52:58;76.37;;;59.77;;
3811;SDS011;1921;49.368;11.068;2022-08-25T11:55:47;73.80;;;58.87;;
3811;SDS011;1921;49.368;11.068;2022-08-25T11:58:29;74.80;;;58.80;;
3811;SDS011;1921;49.368;11.068;2022-08-25T12:00:56;71.90;;;57.87;;
3811;SDS011;1921;49.368;11.068;2022-08-25T12:08:50;79.13;;;59.10;;
3811;SDS011;1921;49.368;11.068;2022-08-25T12:35:52;72.30;;;56.73;;
3811;SDS011;1921;49.368;11.068;2022-08-25T12:38:38;74.63;;;58.00;;
3811;SDS011;1921;49.368;11.068;2022-08-25T12:41:13;73.60;;;56.28;;
3811;SDS011;1921;49.368;11.068;2022-08-25T12:43:46;72.95;;;57.63;;
3811;SDS011;1921;49.368;11.068;2022-08-25T12:48:54;78.00;;;58.35;;
3811;SDS011;1921;49.368;11.068;2022-08-25T12:54:58;73.57;;;57.77;;
3811;SDS011;1921;49.368;11.068;2022-08-25T13:03:32;71.47;;;54.90;;
3811;SDS011;1921;49.368;11.068;2022-08-25T13:09:31;77.33;;;58.90;;
3811;SDS011;1921;49.368;11.068;2022-08-25T13:12:45;77.30;;;58.00;;
3811;SDS011;1921;49.368;11.068;2022-08-25T13:15:45;75.90;;;58.90;;
3811;SDS011;1921;49.368;11.068;2022-08-25T13:23:38;74.80;;;59.20;;
3811;SDS011;1921;49.368;11.068;2022-08-25T13:26:08;80.32;;;59.70;;
3811;SDS011;1921;49.368;11.068;2022-08-25T13:31:31;75.60;;;60.10;;
3811;SDS011;1921;49.368;11.068;2022-08-25T13:33:58;75.03;;;60.10;;
3811;SDS011;1921;49.368;11.068;2022-08-25T13:36:34;76.30;;;58.50;;
3811;SDS011;1921;49.368;11.068;2022-08-25T13:39:27;78.30;;;60.00;;
3811;SDS011;1921;49.368;11.068;2022-08-25T13:41:57;72.47;;;57.38;;
3811;SDS011;1921;49.368;11.068;2022-08-25T13:44:25;73.53;;;57.83;;
3811;SDS011;1921;49.368;11.068;2022-08-25T13:50:13;76.03;;;59.63;;
3811;SDS011;1921;49.368;11.068;2022-08-25T13:55:35;72.10;;;55.67;;
3811;SDS011;1921;49.368;11.068;2022-08-25T13:58:03;76.73;;;59.10;;
3811;SDS011;1921;49.368;11.068;2022-08-25T14:00:37;79.60;;;58.57;;
3811;SDS011;1921;49.368;11.068;2022-08-25T14:03:27;74.30;;;57.25;;
3811;SDS011;1921;49.368;11.068;2022-08-25T14:06:18;79.93;;;58.10;;
3811;SDS011;1921;49.368;11.068;2022-08-25T14:11:39;73.63;;;58.07;;
3811;SDS011;1921;49.368;11.068;2022-08-25T14:14:13;75.57;;;58.73;;
3811;SDS011;1921;49.368;11.068;2022-08-25T14:17:02;75.82;;;59.20;;
3811;SDS011;1921;49.368;11.068;2022-08-25T14:19:34;72.57;;;58.53;;
3811;SDS011;1921;49.368;11.068;2022-08-25T14:22:08;81.60;;;60.05;;
3811;SDS011;1921;49.368;11.068;2022-08-25T14:24:36;80.20;;;60.35;;
3811;SDS011;1921;49.368;11.068;2022-08-25T14:27:03;75.57;;;58.88;;
3811;SDS011;1921;49.368;11.068;2022-08-25T14:29:29;77.45;;;58.50;;
3811;SDS011;1921;49.368;11.068;2022-08-25T14:31:55;73.25;;;57.72;;
3811;SDS011;1921;49.368;11.068;2022-08-25T14:34:22;77.77;;;59.80;;
3811;SDS011;1921;49.368;11.068;2022-08-25T14:36:52;74.47;;;59.50;;
3811;SDS011;1921;49.368;11.068;2022-08-25T14:39:18;70.47;;;56.10;;
3811;SDS011;1921;49.368;11.068;2022-08-25T14:41:45;79.60;;;59.00;;
3811;SDS011;1921;49.368;11.068;2022-08-25T14:44:11;74.57;;;58.10;;
3811;SDS011;1921;49.368;11.068;2022-08-25T14:46:45;75.70;;;58.20;;
3811;SDS011;1921;49.368;11.068;2022-08-25T14:49:20;78.78;;;59.03;;
3811;SDS011;1921;49.368;11.068;2022-08-25T14:51:51;76.78;;;59.67;;
3811;SDS011;1921;49.368;11.068;2022-08-25T14:54:17;76.10;;;58.13;;
3811;SDS011;1921;49.368;11.068;2022-08-25T14:56:47;74.28;;;58.47;;
3811;SDS011;1921;49.368;11.068;2022-08-25T14:59:13;73.15;;;58.22;;
3811;SDS011;1921;49.368;11.068;2022-08-25T15:01:39;77.10;;;58.00;;
3811;SDS011;1921;49.368;11.068;2022-08-25T15:04:13;75.30;;;58.70;;
3811;SDS011;1921;49.368;11.068;2022-08-25T15:06:54;74.88;;;58.42;;
3811;SDS011;1921;49.368;11.068;2022-08-25T15:09:23;74.97;;;58.42;;
3811;SDS011;1921;49.368;11.068;2022-08-25T15:11:50;78.70;;;58.67;;
3811;SDS011;1921;49.368;11.068;2022-08-25T15:14:19;77.13;;;59.50;;
3811;SDS011;1921;49.368;11.068;2022-08-25T15:16:48;75.03;;;58.85;;
3811;SDS011;1921;49.368;11.068;2022-08-25T15:19:19;74.60;;;59.45;;
3811;SDS011;1921;49.368;11.068;2022-08-25T15:21:48;79.57;;;59.38;;
3811;SDS011;1921;49.368;11.068;2022-08-25T15:24:15;81.78;;;59.30;;
3811;SDS011;1921;49.368;11.068;2022-08-25T15:26:49;77.28;;;59.60;;
3811;SDS011;1921;49.368;11.068;2022-08-25T15:29:28;78.93;;;59.28;;
3811;SDS011;1921;49.368;11.068;2022-08-25T15:31:56;82.18;;;60.30;;
3811;SDS011;1921;49.368;11.068;2022-08-25T15:34:24;77.85;;;59.55;;
3811;SDS011;1921;49.368;11.068;2022-08-25T15:36:50;79.88;;;60.25;;
3811;SDS011;1921;49.368;11.068;2022-08-25T15:39:16;79.85;;;59.70;;
3811;SDS011;1921;49.368;11.068;2022-08-25T15:41:43;76.55;;;58.85;;
3811;SDS011;1921;49.368;11.068;2022-08-25T15:44:10;77.57;;;59.40;;
3811;SDS011;1921;49.368;11.068;2022-08-25T15:46:36;83.28;;;59.17;;
3811;SDS011;1921;49.368;11.068;2022-08-25T15:49:03;78.72;;;59.53;;
3811;SDS011;1921;49.368;11.068;2022-08-25T15:51:29;76.65;;;59.33;;
3811;SDS011;1921;49.368;11.068;2022-08-25T15:53:55;78.40;;;59.63;;
3811;SDS011;1921;49.368;11.068;2022-08-25T15:56:21;80.43;;;59.55;;
3811;SDS011;1921;49.368;11.068;2022-08-25T15:58:48;76.72;;;59.47;;
3811;SDS011;1921;49.368;11.068;2022-08-25T16:01:17;76.35;;;56.28;;
3811;SDS011;1921;49.368;11.068;2022-08-25T16:03:46;72.15;;;57.50;;
3811;SDS011;1921;49.368;11.068;2022-08-25T16:06:12;75.73;;;57.30;;
3811;SDS011;1921;49.368;11.068;2022-08-25T16:08:38;75.07;;;57.60;;
3811;SDS011;1921;49.368;11.068;2022-08-25T16:11:05;71.40;;;56.00;;
3811;SDS011;1921;49.368;11.068;2022-08-25T16:13:39;71.33;;;57.00;;
3811;SDS011;1921;49.368;11.068;2022-08-25T16:16:05;78.87;;;57.03;;
3811;SDS011;1921;49.368;11.068;2022-08-25T16:18:31;73.27;;;57.50;;
3811;SDS011;1921;49.368;11.068;2022-08-25T16:20:56;70.00;;;55.80;;
3811;SDS011;1921;49.368;11.068;2022-08-25T16:23:22;71.67;;;55.53;;
3811;SDS011;1921;49.368;11.068;2022-08-25T16:25:48;71.50;;;56.40;;
3811;SDS011;1921;49.368;11.068;2022-08-25T16:28:14;75.87;;;56.10;;
3811;SDS011;1921;49.368;11.068;2022-08-25T16:30:45;72.40;;;56.20;;
3811;SDS011;1921;49.368;11.068;2022-08-25T16:33:13;75.43;;;55.13;;
3811;SDS011;1921;49.368;11.068;2022-08-25T16:35:41;74.00;;;57.10;;
3811;SDS011;1921;49.368;11.068;2022-08-25T16:38:08;72.53;;;56.20;;
3811;SDS011;1921;49.368;11.068;2022-08-25T16:40:37;75.13;;;57.93;;
3811;SDS011;1921;49.368;11.068;2022-08-25T16:43:04;73.37;;;56.70;;
3811;SDS011;1921;49.368;11.068;2022-08-25T16:45:31;78.37;;;59.43;;
3811;SDS011;1921;49.368;11.068;2022-08-25T16:47:56;73.93;;;58.00;;
3811;SDS011;1921;49.368;11.068;2022-08-25T16:50:22;75.10;;;57.30;;
3811;SDS011;1921;49.368;11.068;2022-08-25T16:52:48;74.70;;;57.67;;
3811;SDS011;1921;49.368;11.068;2022-08-25T16:55:32;74.83;;;56.50;;
3811;SDS011;1921;49.368;11.068;2022-08-25T16:57:58;72.60;;;56.97;;
3811;SDS011;1921;49.368;11.068;2022-08-25T17:00:26;71.70;;;54.80;;
3811;SDS011;1921;49.368;11.068;2022-08-25T17:02:59;75.20;;;58.00;;
3811;SDS011;1921;49.368;11.068;2022-08-25T17:05:28;73.37;;;57.70;;
3811;SDS011;1921;49.368;11.068;2022-08-25T17:08:00;70.90;;;57.60;;
3811;SDS011;1921;49.368;11.068;2022-08-25T17:10:45;70.53;;;55.47;;
3811;SDS011;1921;49.368;11.068;2022-08-25T17:13:11;72.00;;;56.33;;
3811;SDS011;1921;49.368;11.068;2022-08-25T17:15:39;78.07;;;57.43;;